createdAt,value
2019-02-15T00:01:34.718Z,100859.87
2019-02-15T00:05:42.499Z,100864.05
2019-02-15T00:09:50.739Z,100860.11
2019-02-15T00:13:58.992Z,100873.56
2019-02-15T00:18:24.198Z,100872.95
2019-02-15T00:22:32.454Z,100880.84
2019-02-15T00:26:40.872Z,100886.97
2019-02-15T00:30:48.565Z,100878.52
2019-02-15T00:34:57.383Z,100875.58
2019-02-15T00:39:06.335Z,100871.42
2019-02-15T00:43:22.070Z,100871.11
2019-02-15T00:47:46.634Z,100868.09
2019-02-15T00:52:05.486Z,100867.30
2019-02-15T00:56:41.839Z,100867.06
2019-02-15T01:01:08.883Z,100863.53
2019-02-15T01:05:44.658Z,100868.07
2019-02-15T01:10:00.492Z,100867.69
2019-02-15T01:14:08.209Z,100859.97
2019-02-15T01:18:16.252Z,100867.14
2019-02-15T01:22:24.379Z,100865.30
2019-02-15T01:26:56.959Z,100868.25
2019-02-15T01:31:21.498Z,100871.88
2019-02-15T01:36:03.946Z,100879.22
2019-02-15T01:40:23.033Z,100880.61
2019-02-15T01:44:49.830Z,100880.41
2019-02-15T01:48:57.602Z,100893.63
2019-02-15T01:53:06.148Z,100894.63
2019-02-15T01:57:13.922Z,100906.09
2019-02-15T02:01:24.491Z,100900.52
2019-02-15T02:05:32.681Z,100908.09
2019-02-15T02:09:41.996Z,100905.05
2019-02-15T02:13:50.140Z,100904.05
2019-02-15T02:17:58.326Z,100899.65
2019-02-15T02:22:06.213Z,100902.03
2019-02-15T02:26:14.156Z,100900.03
2019-02-15T02:30:22.475Z,100906.36
2019-02-15T02:34:29.903Z,100903.98
2019-02-15T02:38:38.134Z,100904.45
2019-02-15T02:42:45.891Z,100905.84
2019-02-15T02:46:54.209Z,100896.39
2019-02-15T02:51:02.251Z,100911.11
2019-02-15T02:55:10.556Z,100912.25
2019-02-15T02:59:18.649Z,100915.74
2019-02-15T03:03:26.897Z,100907.47
2019-02-15T03:07:35.204Z,100910.31
2019-02-15T03:11:42.917Z,100913.66
2019-02-15T03:15:51.055Z,100920.23
2019-02-15T03:19:58.837Z,100911.55
2019-02-15T03:24:06.687Z,100914.94
2019-02-15T03:28:15.290Z,100914.03
2019-02-15T03:32:22.890Z,100922.52
2019-02-15T03:36:52.433Z,100927.19
2019-02-15T03:41:03.108Z,100919.88
2019-02-15T03:45:11.009Z,100936.92
2019-02-15T03:49:19.211Z,100947.38
2019-02-15T03:53:27.431Z,100950.70
2019-02-15T03:57:35.145Z,100950.88
2019-02-15T04:01:43.779Z,100953.07
2019-02-15T04:05:51.502Z,100959.48
2019-02-15T04:09:59.287Z,100956.70
2019-02-15T04:14:07.501Z,100956.08
2019-02-15T04:18:15.308Z,100959.55
2019-02-15T04:22:22.907Z,100960.17
2019-02-15T04:26:31.052Z,100966.30
2019-02-15T04:30:38.866Z,100969.76
2019-02-15T04:34:47.064Z,100961.42
2019-02-15T04:38:54.982Z,100973.13
2019-02-15T04:43:02.582Z,100985.11
2019-02-15T04:47:10.417Z,100986.11
2019-02-15T04:51:18.393Z,100987.98
2019-02-15T04:55:26.018Z,100995.33
2019-02-15T04:59:34.375Z,101007.02
2019-02-15T05:03:42.580Z,101015.75
2019-02-15T05:07:50.282Z,101021.02
2019-02-15T05:11:58.196Z,101032.03
2019-02-15T05:16:06.542Z,101024.53
2019-02-15T05:20:14.206Z,101023.52
2019-02-15T05:24:22.361Z,101032.17
2019-02-15T05:28:30.132Z,101038.05
2019-02-15T05:32:37.791Z,101048.06
2019-02-15T05:36:45.977Z,101051.91
2019-02-15T05:40:53.689Z,101052.48
2019-02-15T05:45:04.205Z,101053.59
2019-02-15T05:49:11.761Z,101056.05
2019-02-15T05:53:19.479Z,101065.26
2019-02-15T05:57:27.603Z,101077.28
2019-02-15T06:01:36.110Z,101090.13
2019-02-15T06:05:43.836Z,101097.80
2019-02-15T06:09:52.063Z,101103.92
2019-02-15T06:14:00.283Z,101108.70
2019-02-15T06:18:08.120Z,101116.53
2019-02-15T06:22:16.396Z,101123.44
2019-02-15T06:26:24.166Z,101127.25
2019-02-15T06:30:32.698Z,101133.54
2019-02-15T06:34:40.825Z,101140.14
2019-02-15T06:38:48.437Z,101140.19
2019-02-15T06:42:56.914Z,101141.59
2019-02-15T06:47:05.173Z,101159.27
2019-02-15T06:51:12.875Z,101154.13
2019-02-15T06:55:21.016Z,101155.52
2019-02-15T06:59:50.427Z,101165.37
2019-02-15T07:04:38.573Z,101175.41
2019-02-15T07:08:47.031Z,101168.84
2019-02-15T07:12:54.782Z,101171.70
2019-02-15T07:17:02.702Z,101167.56
2019-02-15T07:21:10.651Z,101172.41
2019-02-15T07:25:18.480Z,101178.23
2019-02-15T07:29:26.404Z,101177.98
2019-02-15T07:33:34.758Z,101186.08
2019-02-15T07:37:42.475Z,101186.81
2019-02-15T07:41:50.387Z,101191.16
2019-02-15T07:45:58.316Z,101194.68
2019-02-15T07:50:07.340Z,101198.08
2019-02-15T07:54:15.755Z,101195.11
2019-02-15T07:58:27.095Z,101192.79
2019-02-15T08:02:34.998Z,101197.61
2019-02-15T08:06:52.519Z,101194.73
2019-02-15T08:11:00.722Z,101199.00
2019-02-15T08:15:09.063Z,101206.91
2019-02-15T08:19:16.981Z,101202.39
2019-02-15T08:23:25.075Z,101199.77
2019-02-15T08:27:32.896Z,101197.66
2019-02-15T08:31:40.611Z,101200.13
2019-02-15T08:35:48.302Z,101209.48
2019-02-15T08:39:56.029Z,101208.61
2019-02-15T08:44:04.340Z,101205.50
2019-02-15T08:48:12.144Z,101208.23
2019-02-15T08:52:20.325Z,101213.13
2019-02-15T08:56:28.173Z,101223.11
2019-02-15T09:00:36.082Z,101226.77
2019-02-15T09:04:43.911Z,101241.84
2019-02-15T09:08:51.881Z,101246.63
2019-02-15T09:12:59.472Z,101239.91
2019-02-15T09:17:07.916Z,101261.30
2019-02-15T09:21:15.750Z,101254.00
2019-02-15T09:25:23.597Z,101259.21
2019-02-15T09:29:31.578Z,101255.33
2019-02-15T09:33:39.400Z,101264.16
2019-02-15T09:37:47.623Z,101256.56
2019-02-15T09:41:55.726Z,101274.02
2019-02-15T09:46:03.449Z,101272.46
2019-02-15T09:50:12.265Z,101266.28
2019-02-15T09:54:21.700Z,101272.77
2019-02-15T09:58:29.635Z,101277.66
2019-02-15T10:02:37.761Z,101281.31
2019-02-15T10:06:46.025Z,101285.41
2019-02-15T10:10:53.866Z,101277.53
2019-02-15T10:15:01.818Z,101276.25
2019-02-15T10:19:10.048Z,101271.14
2019-02-15T10:23:17.856Z,101276.39
2019-02-15T10:27:26.236Z,101275.81
2019-02-15T10:31:33.955Z,101274.45
2019-02-15T10:35:42.374Z,101285.50
2019-02-15T10:39:50.181Z,101279.83
2019-02-15T10:43:58.082Z,101284.91
2019-02-15T10:48:06.463Z,101279.94
2019-02-15T10:52:14.586Z,101274.69
2019-02-15T10:56:22.350Z,101276.19
2019-02-15T11:00:30.359Z,101263.23
2019-02-15T11:04:38.379Z,101271.37
2019-02-15T11:08:46.285Z,101276.95
2019-02-15T11:12:54.186Z,101279.42
2019-02-15T11:17:03.181Z,101265.84
2019-02-15T11:21:10.942Z,101279.95
2019-02-15T11:25:19.340Z,101273.52
2019-02-15T11:29:27.894Z,101283.61
2019-02-15T11:33:35.905Z,101279.13
2019-02-15T11:37:43.821Z,101273.48
2019-02-15T11:41:51.438Z,101267.72
2019-02-15T11:45:59.732Z,101275.23
2019-02-15T11:50:09.896Z,101260.64
2019-02-15T11:54:23.507Z,101262.52
2019-02-15T11:58:28.421Z,101259.38
2019-02-15T12:02:36.323Z,101256.09
2019-02-15T12:06:44.015Z,101251.09
2019-02-15T12:10:52.150Z,101249.81
2019-02-15T12:15:00.462Z,101252.39
2019-02-15T12:19:08.193Z,101233.30
2019-02-15T12:23:16.750Z,101241.39
2019-02-15T12:27:24.723Z,101242.36
2019-02-15T12:31:32.537Z,101247.50
2019-02-15T12:35:40.335Z,101228.88
2019-02-15T12:39:48.039Z,101228.13
2019-02-15T12:43:55.934Z,101236.50
2019-02-15T12:48:04.185Z,101234.10
2019-02-15T12:52:11.725Z,101223.31
2019-02-15T12:56:19.684Z,101233.56
2019-02-15T13:00:27.711Z,101232.81
2019-02-15T13:04:35.396Z,101221.04
2019-02-15T13:08:44.623Z,101229.31
2019-02-15T13:12:52.370Z,101230.55
2019-02-15T13:17:00.203Z,101229.48
2019-02-15T13:21:07.977Z,101218.30
2019-02-15T13:25:16.203Z,101223.64
2019-02-15T13:29:24.935Z,101223.81
2019-02-15T13:33:32.932Z,101216.16
2019-02-15T13:37:41.250Z,101220.49
2019-02-15T13:41:48.990Z,101219.80
2019-02-15T13:45:56.883Z,101225.20
2019-02-15T13:50:04.825Z,101228.81
2019-02-15T13:54:13.058Z,101222.70
2019-02-15T13:58:21.125Z,101222.20
2019-02-15T14:02:30.974Z,101225.64
2019-02-15T14:06:38.251Z,101219.63
2019-02-15T14:10:46.558Z,101232.17
2019-02-15T14:14:54.532Z,101231.27
2019-02-15T14:19:03.183Z,101229.58
2019-02-15T14:23:11.219Z,101231.28
2019-02-15T14:27:24.140Z,101241.62
2019-02-15T14:31:33.355Z,101243.39
2019-02-15T14:35:42.941Z,101247.48
2019-02-15T14:39:50.843Z,101249.14
2019-02-15T14:43:58.848Z,101243.87
2019-02-15T14:48:07.495Z,101252.48
2019-02-15T14:52:15.284Z,101256.70
2019-02-15T14:56:23.324Z,101256.73
2019-02-15T15:00:31.206Z,101257.88
2019-02-15T15:04:39.019Z,101262.92
2019-02-15T15:08:47.145Z,101259.19
2019-02-15T15:12:54.843Z,101273.80
2019-02-15T15:17:02.647Z,101276.03
2019-02-15T15:21:10.587Z,101275.48
2019-02-15T15:25:18.173Z,101282.08
2019-02-15T15:29:27.057Z,101280.13
2019-02-15T15:33:35.611Z,101284.47
2019-02-15T15:37:43.571Z,101291.23
2019-02-15T15:41:52.925Z,101292.97
2019-02-15T15:46:01.827Z,101287.95
2019-02-15T15:50:10.651Z,101293.69
2019-02-15T15:54:19.392Z,101306.33
2019-02-15T15:58:27.471Z,101310.23
2019-02-15T16:02:35.398Z,101321.29
2019-02-15T16:06:43.727Z,101317.36
2019-02-15T16:10:52.277Z,101320.00
2019-02-15T16:15:00.387Z,101323.66
2019-02-15T16:19:10.213Z,101326.29
2019-02-15T16:23:19.250Z,101336.13
2019-02-15T16:27:30.065Z,101332.05
2019-02-15T16:31:38.339Z,101337.96
2019-02-15T16:35:46.708Z,101340.27
2019-02-15T16:39:54.368Z,101344.36
2019-02-15T16:44:02.549Z,101342.88
2019-02-15T16:48:10.495Z,101347.78
2019-02-15T16:52:18.824Z,101348.80
2019-02-15T16:56:27.063Z,101369.84
2019-02-15T17:00:34.914Z,101371.88
2019-02-15T17:04:42.864Z,101369.05
2019-02-15T17:08:51.099Z,101383.09
2019-02-15T17:12:59.001Z,101373.09
2019-02-15T17:17:06.924Z,101375.63
2019-02-15T17:21:15.031Z,101386.30
2019-02-15T17:25:25.231Z,101389.45
2019-02-15T17:29:33.739Z,101391.12
2019-02-15T17:33:41.518Z,101390.81
2019-02-15T17:37:49.164Z,101399.48
2019-02-15T17:41:57.374Z,101397.36
2019-02-15T17:46:05.190Z,101397.78
2019-02-15T17:50:13.097Z,101405.47
2019-02-15T17:54:21.061Z,101409.09
2019-02-15T17:58:28.897Z,101416.81
2019-02-15T18:02:37.028Z,101417.62
2019-02-15T18:06:45.343Z,101424.82
2019-02-15T18:10:53.691Z,101427.23
2019-02-15T18:15:01.886Z,101428.52
2019-02-15T18:19:10.498Z,101426.46
2019-02-15T18:23:19.762Z,101432.64
2019-02-15T18:27:27.676Z,101429.97
2019-02-15T18:31:35.627Z,101435.62
2019-02-15T18:35:43.802Z,101439.35
2019-02-15T18:39:52.243Z,101445.42
2019-02-15T18:44:00.274Z,101443.73
2019-02-15T18:48:08.746Z,101437.63
2019-02-15T18:52:16.673Z,101439.42
2019-02-15T18:56:24.663Z,101429.27
2019-02-15T19:00:32.821Z,101440.30
2019-02-15T19:04:41.295Z,101448.86
2019-02-15T19:08:49.231Z,101448.66
2019-02-15T19:12:57.595Z,101445.09
2019-02-15T19:17:05.570Z,101443.00
2019-02-15T19:21:13.724Z,101444.92
2019-02-15T19:25:21.399Z,101450.96
2019-02-15T19:29:29.739Z,101455.45
2019-02-15T19:33:38.396Z,101456.56
2019-02-15T19:37:46.188Z,101452.81
2019-02-15T19:41:54.411Z,101456.38
2019-02-15T19:46:02.422Z,101448.86
2019-02-15T19:50:12.233Z,101451.98
2019-02-15T19:54:20.319Z,101449.72
2019-02-15T19:58:28.220Z,101449.53
2019-02-15T20:02:36.209Z,101453.81
2019-02-15T20:06:44.646Z,101455.80
2019-02-15T20:10:53.388Z,101451.97
2019-02-15T20:15:10.711Z,101453.53
2019-02-15T20:19:18.423Z,101455.84
2019-02-15T20:23:26.222Z,101456.23
2019-02-15T20:27:34.126Z,101452.55
2019-02-15T20:31:43.065Z,101458.14
2019-02-15T20:35:50.992Z,101455.59
2019-02-15T20:40:01.000Z,101452.64
2019-02-15T20:44:10.296Z,101447.21
2019-02-15T20:48:17.910Z,101444.69
2019-02-15T20:52:26.019Z,101445.34
2019-02-15T20:56:34.111Z,101450.70
2019-02-15T21:00:41.955Z,101450.67
2019-02-15T21:04:50.174Z,101446.33
2019-02-15T21:08:58.312Z,101445.56
2019-02-15T21:13:06.706Z,101448.87
2019-02-15T21:17:15.026Z,101451.61
2019-02-15T21:21:22.736Z,101450.45
2019-02-15T21:25:30.665Z,101452.59
2019-02-15T21:29:38.858Z,101446.17
2019-02-15T21:33:46.791Z,101447.17
2019-02-15T21:37:54.898Z,101447.00
2019-02-15T21:42:02.606Z,101436.49
2019-02-15T21:46:10.612Z,101435.14
2019-02-15T21:50:18.948Z,101443.53
2019-02-15T21:54:26.751Z,101438.73
2019-02-15T21:58:34.748Z,101444.84
2019-02-15T22:02:43.003Z,101445.08
2019-02-15T22:06:50.534Z,101442.47
2019-02-15T22:10:58.507Z,101446.73
2019-02-15T22:15:07.766Z,101447.37
2019-02-15T22:19:15.878Z,101447.95
2019-02-15T22:23:24.154Z,101444.77
2019-02-15T22:27:32.512Z,101452.09
2019-02-15T22:31:40.414Z,101451.94
2019-02-15T22:35:48.834Z,101447.89
2019-02-15T22:39:57.058Z,101447.89
2019-02-15T22:44:04.866Z,101446.05
2019-02-15T22:48:13.186Z,101434.45
2019-02-15T22:52:21.099Z,101443.01
2019-02-15T22:56:28.795Z,101431.73
2019-02-15T23:00:49.732Z,101426.24
2019-02-15T23:04:58.085Z,101427.36
2019-02-15T23:09:09.593Z,101421.20
2019-02-15T23:13:17.963Z,101423.93
2019-02-15T23:17:25.888Z,101421.38
2019-02-15T23:21:33.788Z,101420.78
2019-02-15T23:25:42.611Z,101413.27
2019-02-15T23:29:50.650Z,101424.45
2019-02-15T23:33:59.443Z,101423.30
2019-02-15T23:38:07.292Z,101429.80
2019-02-15T23:42:14.895Z,101425.36
2019-02-15T23:46:22.899Z,101423.83
2019-02-15T23:50:31.250Z,101416.00
2019-02-15T23:54:38.849Z,101418.52
2019-02-15T23:58:47.249Z,101421.42
